sensor_id;sensor_type;location;lat;lon;timestamp;P1;durP1;ratioP1;P2;durP2;ratioP2
7683;SDS011;3884;48.616;12.872;2023-12-20T00:01:15;30.10;;;23.73;;
7683;SDS011;3884;48.616;12.872;2023-12-20T00:03:42;27.70;;;23.50;;
7683;SDS011;3884;48.616;12.872;2023-12-20T00:06:09;29.50;;;24.07;;
7683;SDS011;3884;48.616;12.872;2023-12-20T00:08:38;29.77;;;24.17;;
7683;SDS011;3884;48.616;12.872;2023-12-20T00:11:05;28.87;;;22.57;;
7683;SDS011;3884;48.616;12.872;2023-12-20T00:13:32;29.47;;;23.73;;
7683;SDS011;3884;48.616;12.872;2023-12-20T00:15:58;29.70;;;23.90;;
7683;SDS011;3884;48.616;12.872;2023-12-20T00:18:26;29.10;;;23.10;;
7683;SDS011;3884;48.616;12.872;2023-12-20T00:20:55;29.80;;;23.70;;
7683;SDS011;3884;48.616;12.872;2023-12-20T00:23:21;26.60;;;22.23;;
7683;SDS011;3884;48.616;12.872;2023-12-20T00:25:50;31.60;;;24.43;;
7683;SDS011;3884;48.616;12.872;2023-12-20T00:28:17;31.93;;;22.97;;
7683;SDS011;3884;48.616;12.872;2023-12-20T00:30:44;31.00;;;24.10;;
7683;SDS011;3884;48.616;12.872;2023-12-20T00:33:11;28.27;;;22.87;;
7683;SDS011;3884;48.616;12.872;2023-12-20T00:35:38;30.30;;;24.97;;
7683;SDS011;3884;48.616;12.872;2023-12-20T00:38:05;29.50;;;23.73;;
7683;SDS011;3884;48.616;12.872;2023-12-20T00:40:33;26.27;;;21.77;;
7683;SDS011;3884;48.616;12.872;2023-12-20T00:43:02;28.90;;;21.70;;
7683;SDS011;3884;48.616;12.872;2023-12-20T00:45:29;25.63;;;21.00;;
7683;SDS011;3884;48.616;12.872;2023-12-20T00:47:56;26.17;;;21.00;;
7683;SDS011;3884;48.616;12.872;2023-12-20T00:50:25;28.57;;;22.70;;
7683;SDS011;3884;48.616;12.872;2023-12-20T00:52:52;28.30;;;20.90;;
7683;SDS011;3884;48.616;12.872;2023-12-20T00:55:20;29.17;;;22.53;;
7683;SDS011;3884;48.616;12.872;2023-12-20T00:57:48;26.93;;;21.63;;
7683;SDS011;3884;48.616;12.872;2023-12-20T01:00:16;28.80;;;21.20;;
7683;SDS011;3884;48.616;12.872;2023-12-20T01:02:44;25.13;;;19.63;;
7683;SDS011;3884;48.616;12.872;2023-12-20T01:05:11;26.90;;;22.13;;
7683;SDS011;3884;48.616;12.872;2023-12-20T01:07:38;31.00;;;24.67;;
7683;SDS011;3884;48.616;12.872;2023-12-20T01:10:05;28.53;;;22.67;;
7683;SDS011;3884;48.616;12.872;2023-12-20T01:12:33;28.00;;;21.90;;
7683;SDS011;3884;48.616;12.872;2023-12-20T01:15:00;23.80;;;19.67;;
7683;SDS011;3884;48.616;12.872;2023-12-20T01:17:28;28.30;;;22.03;;
7683;SDS011;3884;48.616;12.872;2023-12-20T01:19:55;26.30;;;22.43;;
7683;SDS011;3884;48.616;12.872;2023-12-20T01:22:23;28.73;;;22.47;;
7683;SDS011;3884;48.616;12.872;2023-12-20T01:24:50;26.63;;;21.90;;
7683;SDS011;3884;48.616;12.872;2023-12-20T01:27:18;30.53;;;23.53;;
7683;SDS011;3884;48.616;12.872;2023-12-20T01:29:45;32.33;;;24.37;;
7683;SDS011;3884;48.616;12.872;2023-12-20T01:32:12;29.20;;;23.27;;
7683;SDS011;3884;48.616;12.872;2023-12-20T01:34:40;34.30;;;26.80;;
7683;SDS011;3884;48.616;12.872;2023-12-20T01:37:07;34.40;;;26.90;;
7683;SDS011;3884;48.616;12.872;2023-12-20T01:39:34;32.67;;;26.73;;
7683;SDS011;3884;48.616;12.872;2023-12-20T01:42:00;35.20;;;27.47;;
7683;SDS011;3884;48.616;12.872;2023-12-20T01:44:27;37.07;;;28.00;;
7683;SDS011;3884;48.616;12.872;2023-12-20T01:46:54;36.53;;;29.30;;
7683;SDS011;3884;48.616;12.872;2023-12-20T01:49:21;37.07;;;28.90;;
7683;SDS011;3884;48.616;12.872;2023-12-20T01:51:50;38.07;;;28.73;;
7683;SDS011;3884;48.616;12.872;2023-12-20T01:54:17;34.87;;;28.33;;
7683;SDS011;3884;48.616;12.872;2023-12-20T01:56:45;37.43;;;29.53;;
7683;SDS011;3884;48.616;12.872;2023-12-20T01:59:12;36.20;;;29.03;;
7683;SDS011;3884;48.616;12.872;2023-12-20T02:01:40;35.33;;;28.77;;
7683;SDS011;3884;48.616;12.872;2023-12-20T02:04:07;36.07;;;27.97;;
7683;SDS011;3884;48.616;12.872;2023-12-20T02:06:34;32.97;;;26.67;;
7683;SDS011;3884;48.616;12.872;2023-12-20T02:09:02;31.70;;;27.47;;
7683;SDS011;3884;48.616;12.872;2023-12-20T02:11:29;35.10;;;26.80;;
7683;SDS011;3884;48.616;12.872;2023-12-20T02:13:56;37.90;;;28.67;;
7683;SDS011;3884;48.616;12.872;2023-12-20T02:16:23;35.97;;;27.67;;
7683;SDS011;3884;48.616;12.872;2023-12-20T02:18:50;35.37;;;28.47;;
7683;SDS011;3884;48.616;12.872;2023-12-20T02:21:17;37.77;;;29.23;;
7683;SDS011;3884;48.616;12.872;2023-12-20T02:23:45;34.23;;;27.47;;
7683;SDS011;3884;48.616;12.872;2023-12-20T02:26:12;35.87;;;27.83;;
7683;SDS011;3884;48.616;12.872;2023-12-20T02:28:39;34.47;;;28.10;;
7683;SDS011;3884;48.616;12.872;2023-12-20T02:31:06;31.37;;;25.90;;
7683;SDS011;3884;48.616;12.872;2023-12-20T02:33:33;30.73;;;25.83;;
7683;SDS011;3884;48.616;12.872;2023-12-20T02:36:00;30.13;;;24.13;;
7683;SDS011;3884;48.616;12.872;2023-12-20T02:38:27;30.77;;;24.37;;
7683;SDS011;3884;48.616;12.872;2023-12-20T02:40:55;33.10;;;25.47;;
7683;SDS011;3884;48.616;12.872;2023-12-20T02:43:22;32.90;;;26.10;;
7683;SDS011;3884;48.616;12.872;2023-12-20T02:45:49;28.27;;;23.50;;
7683;SDS011;3884;48.616;12.872;2023-12-20T02:48:16;29.40;;;23.67;;
7683;SDS011;3884;48.616;12.872;2023-12-20T02:50:43;31.40;;;25.03;;
7683;SDS011;3884;48.616;12.872;2023-12-20T02:53:13;31.63;;;25.17;;
7683;SDS011;3884;48.616;12.872;2023-12-20T02:55:40;29.00;;;23.23;;
7683;SDS011;3884;48.616;12.872;2023-12-20T02:58:08;29.33;;;24.47;;
7683;SDS011;3884;48.616;12.872;2023-12-20T03:00:35;29.40;;;23.30;;
7683;SDS011;3884;48.616;12.872;2023-12-20T03:03:02;28.37;;;23.20;;
7683;SDS011;3884;48.616;12.872;2023-12-20T03:05:30;28.47;;;22.80;;
7683;SDS011;3884;48.616;12.872;2023-12-20T03:07:57;27.63;;;22.00;;
7683;SDS011;3884;48.616;12.872;2023-12-20T03:10:24;25.53;;;21.40;;
7683;SDS011;3884;48.616;12.872;2023-12-20T03:12:50;23.87;;;19.60;;
7683;SDS011;3884;48.616;12.872;2023-12-20T03:15:19;25.10;;;21.63;;
7683;SDS011;3884;48.616;12.872;2023-12-20T03:17:45;24.63;;;20.40;;
7683;SDS011;3884;48.616;12.872;2023-12-20T03:20:12;23.17;;;19.27;;
7683;SDS011;3884;48.616;12.872;2023-12-20T03:22:39;24.47;;;20.70;;
7683;SDS011;3884;48.616;12.872;2023-12-20T03:25:06;22.37;;;19.33;;
7683;SDS011;3884;48.616;12.872;2023-12-20T03:27:33;23.77;;;20.07;;
7683;SDS011;3884;48.616;12.872;2023-12-20T03:30:03;23.70;;;19.33;;
7683;SDS011;3884;48.616;12.872;2023-12-20T03:32:32;22.13;;;18.77;;
7683;SDS011;3884;48.616;12.872;2023-12-20T03:34:59;24.43;;;19.30;;
7683;SDS011;3884;48.616;12.872;2023-12-20T03:37:26;29.87;;;22.83;;
7683;SDS011;3884;48.616;12.872;2023-12-20T03:39:54;23.83;;;19.47;;
7683;SDS011;3884;48.616;12.872;2023-12-20T03:42:21;23.60;;;19.10;;
7683;SDS011;3884;48.616;12.872;2023-12-20T03:44:48;22.90;;;19.40;;
7683;SDS011;3884;48.616;12.872;2023-12-20T03:47:14;23.30;;;19.70;;
7683;SDS011;3884;48.616;12.872;2023-12-20T03:49:43;20.57;;;17.53;;
7683;SDS011;3884;48.616;12.872;2023-12-20T03:52:09;22.67;;;19.43;;
7683;SDS011;3884;48.616;12.872;2023-12-20T03:54:37;24.43;;;19.50;;
7683;SDS011;3884;48.616;12.872;2023-12-20T03:57:04;22.50;;;18.83;;
7683;SDS011;3884;48.616;12.872;2023-12-20T03:59:34;24.40;;;20.10;;
7683;SDS011;3884;48.616;12.872;2023-12-20T04:02:01;25.07;;;20.60;;
7683;SDS011;3884;48.616;12.872;2023-12-20T04:04:28;24.23;;;19.87;;
7683;SDS011;3884;48.616;12.872;2023-12-20T04:06:56;25.23;;;19.73;;
7683;SDS011;3884;48.616;12.872;2023-12-20T04:09:23;22.67;;;18.63;;
7683;SDS011;3884;48.616;12.872;2023-12-20T04:11:50;19.90;;;16.10;;
7683;SDS011;3884;48.616;12.872;2023-12-20T04:14:17;22.43;;;17.50;;
7683;SDS011;3884;48.616;12.872;2023-12-20T04:16:44;21.63;;;17.33;;
7683;SDS011;3884;48.616;12.872;2023-12-20T04:19:12;18.03;;;15.60;;
7683;SDS011;3884;48.616;12.872;2023-12-20T04:21:39;18.77;;;15.63;;
7683;SDS011;3884;48.616;12.872;2023-12-20T04:24:07;19.57;;;16.27;;
7683;SDS011;3884;48.616;12.872;2023-12-20T04:26:34;18.20;;;15.43;;
7683;SDS011;3884;48.616;12.872;2023-12-20T04:29:01;15.83;;;13.23;;
7683;SDS011;3884;48.616;12.872;2023-12-20T04:31:28;18.70;;;15.97;;
7683;SDS011;3884;48.616;12.872;2023-12-20T04:33:55;20.10;;;17.00;;
7683;SDS011;3884;48.616;12.872;2023-12-20T04:36:21;19.57;;;17.20;;
7683;SDS011;3884;48.616;12.872;2023-12-20T04:38:50;21.53;;;16.83;;
7683;SDS011;3884;48.616;12.872;2023-12-20T04:41:18;18.77;;;16.03;;
7683;SDS011;3884;48.616;12.872;2023-12-20T04:43:45;19.97;;;16.03;;
7683;SDS011;3884;48.616;12.872;2023-12-20T04:46:12;18.73;;;15.93;;
7683;SDS011;3884;48.616;12.872;2023-12-20T04:48:39;17.10;;;14.80;;
7683;SDS011;3884;48.616;12.872;2023-12-20T04:51:06;17.67;;;15.50;;
7683;SDS011;3884;48.616;12.872;2023-12-20T04:53:33;19.93;;;14.47;;
7683;SDS011;3884;48.616;12.872;2023-12-20T04:56:00;17.13;;;14.77;;
7683;SDS011;3884;48.616;12.872;2023-12-20T04:58:28;15.53;;;13.33;;
7683;SDS011;3884;48.616;12.872;2023-12-20T05:00:55;17.77;;;13.93;;
7683;SDS011;3884;48.616;12.872;2023-12-20T05:03:22;15.40;;;13.17;;
7683;SDS011;3884;48.616;12.872;2023-12-20T05:05:49;14.73;;;12.83;;
7683;SDS011;3884;48.616;12.872;2023-12-20T05:08:16;13.93;;;12.00;;
7683;SDS011;3884;48.616;12.872;2023-12-20T05:10:42;15.00;;;12.50;;
7683;SDS011;3884;48.616;12.872;2023-12-20T05:13:09;14.13;;;11.83;;
7683;SDS011;3884;48.616;12.872;2023-12-20T05:15:38;14.27;;;12.57;;
7683;SDS011;3884;48.616;12.872;2023-12-20T05:18:05;14.87;;;11.87;;
7683;SDS011;3884;48.616;12.872;2023-12-20T05:20:32;16.27;;;11.80;;
7683;SDS011;3884;48.616;12.872;2023-12-20T05:22:59;14.43;;;12.40;;
7683;SDS011;3884;48.616;12.872;2023-12-20T05:25:25;13.83;;;11.80;;
7683;SDS011;3884;48.616;12.872;2023-12-20T05:27:52;12.97;;;11.17;;
7683;SDS011;3884;48.616;12.872;2023-12-20T05:30:19;12.60;;;11.17;;
7683;SDS011;3884;48.616;12.872;2023-12-20T05:32:47;13.50;;;11.73;;
7683;SDS011;3884;48.616;12.872;2023-12-20T05:35:15;23.27;;;17.00;;
7683;SDS011;3884;48.616;12.872;2023-12-20T05:37:42;20.80;;;16.30;;
7683;SDS011;3884;48.616;12.872;2023-12-20T05:40:10;24.73;;;19.50;;
7683;SDS011;3884;48.616;12.872;2023-12-20T05:42:37;27.57;;;20.07;;
7683;SDS011;3884;48.616;12.872;2023-12-20T05:45:04;24.73;;;17.23;;
7683;SDS011;3884;48.616;12.872;2023-12-20T05:47:32;11.87;;;10.30;;
7683;SDS011;3884;48.616;12.872;2023-12-20T05:50:00;11.93;;;8.70;;
7683;SDS011;3884;48.616;12.872;2023-12-20T05:52:27;11.80;;;9.13;;
7683;SDS011;3884;48.616;12.872;2023-12-20T05:54:54;10.60;;;9.00;;
7683;SDS011;3884;48.616;12.872;2023-12-20T05:57:23;19.13;;;16.50;;
7683;SDS011;3884;48.616;12.872;2023-12-20T05:59:49;19.90;;;14.83;;
7683;SDS011;3884;48.616;12.872;2023-12-20T06:02:17;22.97;;;18.43;;
7683;SDS011;3884;48.616;12.872;2023-12-20T06:04:43;24.87;;;19.60;;
7683;SDS011;3884;48.616;12.872;2023-12-20T06:07:12;10.40;;;9.37;;
7683;SDS011;3884;48.616;12.872;2023-12-20T06:09:40;14.37;;;11.67;;
7683;SDS011;3884;48.616;12.872;2023-12-20T06:12:07;21.40;;;18.43;;
7683;SDS011;3884;48.616;12.872;2023-12-20T06:14:34;17.73;;;15.37;;
7683;SDS011;3884;48.616;12.872;2023-12-20T06:17:01;54.63;;;39.67;;
7683;SDS011;3884;48.616;12.872;2023-12-20T06:19:28;9.53;;;6.87;;
7683;SDS011;3884;48.616;12.872;2023-12-20T06:21:55;7.60;;;5.33;;
7683;SDS011;3884;48.616;12.872;2023-12-20T06:24:23;5.30;;;4.80;;
7683;SDS011;3884;48.616;12.872;2023-12-20T06:26:53;6.27;;;5.67;;
7683;SDS011;3884;48.616;12.872;2023-12-20T06:29:19;7.07;;;5.80;;
7683;SDS011;3884;48.616;12.872;2023-12-20T06:31:46;23.43;;;15.20;;
7683;SDS011;3884;48.616;12.872;2023-12-20T06:34:13;6.27;;;5.03;;
7683;SDS011;3884;48.616;12.872;2023-12-20T06:36:40;4.93;;;4.43;;
7683;SDS011;3884;48.616;12.872;2023-12-20T06:39:07;4.60;;;3.97;;
7683;SDS011;3884;48.616;12.872;2023-12-20T06:41:35;5.83;;;4.80;;
7683;SDS011;3884;48.616;12.872;2023-12-20T06:44:02;6.13;;;4.33;;
7683;SDS011;3884;48.616;12.872;2023-12-20T06:46:29;5.60;;;4.40;;
7683;SDS011;3884;48.616;12.872;2023-12-20T06:48:55;4.87;;;3.87;;
7683;SDS011;3884;48.616;12.872;2023-12-20T06:51:22;4.33;;;3.93;;
7683;SDS011;3884;48.616;12.872;2023-12-20T06:53:50;4.33;;;3.93;;
7683;SDS011;3884;48.616;12.872;2023-12-20T06:56:17;13.70;;;10.40;;
7683;SDS011;3884;48.616;12.872;2023-12-20T06:58:45;15.93;;;11.03;;
7683;SDS011;3884;48.616;12.872;2023-12-20T07:01:13;7.13;;;6.10;;
7683;SDS011;3884;48.616;12.872;2023-12-20T07:03:40;7.87;;;6.13;;
7683;SDS011;3884;48.616;12.872;2023-12-20T07:06:07;16.83;;;12.50;;
7683;SDS011;3884;48.616;12.872;2023-12-20T07:08:34;29.90;;;20.40;;
7683;SDS011;3884;48.616;12.872;2023-12-20T07:11:01;7.37;;;5.80;;
7683;SDS011;3884;48.616;12.872;2023-12-20T07:13:28;60.63;;;35.27;;
7683;SDS011;3884;48.616;12.872;2023-12-20T07:15:57;4.30;;;3.90;;
7683;SDS011;3884;48.616;12.872;2023-12-20T07:18:24;6.17;;;4.67;;
7683;SDS011;3884;48.616;12.872;2023-12-20T07:20:51;4.20;;;3.80;;
7683;SDS011;3884;48.616;12.872;2023-12-20T07:23:19;12.63;;;8.67;;
7683;SDS011;3884;48.616;12.872;2023-12-20T07:25:46;27.87;;;18.63;;
7683;SDS011;3884;48.616;12.872;2023-12-20T07:28:13;39.83;;;26.17;;
7683;SDS011;3884;48.616;12.872;2023-12-20T07:30:40;5.40;;;4.90;;
7683;SDS011;3884;48.616;12.872;2023-12-20T07:33:08;11.23;;;7.50;;
7683;SDS011;3884;48.616;12.872;2023-12-20T07:35:37;4.33;;;3.30;;
7683;SDS011;3884;48.616;12.872;2023-12-20T07:38:04;8.47;;;6.63;;
7683;SDS011;3884;48.616;12.872;2023-12-20T07:40:31;4.07;;;3.63;;
7683;SDS011;3884;48.616;12.872;2023-12-20T07:42:58;3.33;;;3.03;;
7683;SDS011;3884;48.616;12.872;2023-12-20T07:45:25;6.00;;;5.37;;
7683;SDS011;3884;48.616;12.872;2023-12-20T07:47:52;5.53;;;5.03;;
7683;SDS011;3884;48.616;12.872;2023-12-20T07:50:21;6.20;;;5.60;;
7683;SDS011;3884;48.616;12.872;2023-12-20T07:52:48;3.60;;;3.30;;
7683;SDS011;3884;48.616;12.872;2023-12-20T07:55:15;3.73;;;3.37;;
7683;SDS011;3884;48.616;12.872;2023-12-20T07:57:41;4.00;;;3.57;;
7683;SDS011;3884;48.616;12.872;2023-12-20T08:00:09;5.07;;;3.90;;
7683;SDS011;3884;48.616;12.872;2023-12-20T08:02:37;9.80;;;7.67;;
7683;SDS011;3884;48.616;12.872;2023-12-20T08:05:05;5.30;;;4.77;;
7683;SDS011;3884;48.616;12.872;2023-12-20T08:07:34;9.17;;;5.30;;
7683;SDS011;3884;48.616;12.872;2023-12-20T08:10:01;9.93;;;6.43;;
7683;SDS011;3884;48.616;12.872;2023-12-20T08:12:28;8.97;;;6.50;;
7683;SDS011;3884;48.616;12.872;2023-12-20T08:14:55;83.67;;;29.53;;
7683;SDS011;3884;48.616;12.872;2023-12-20T08:17:23;80.57;;;27.10;;
7683;SDS011;3884;48.616;12.872;2023-12-20T08:19:50;133.67;;;54.00;;
7683;SDS011;3884;48.616;12.872;2023-12-20T08:22:17;6.67;;;5.20;;
7683;SDS011;3884;48.616;12.872;2023-12-20T08:24:45;13.53;;;8.43;;
7683;SDS011;3884;48.616;12.872;2023-12-20T08:27:13;30.10;;;21.43;;
7683;SDS011;3884;48.616;12.872;2023-12-20T08:29:39;29.87;;;17.93;;
7683;SDS011;3884;48.616;12.872;2023-12-20T08:32:06;74.57;;;47.77;;
7683;SDS011;3884;48.616;12.872;2023-12-20T08:34:33;23.37;;;17.77;;
7683;SDS011;3884;48.616;12.872;2023-12-20T08:37:00;11.47;;;10.27;;
7683;SDS011;3884;48.616;12.872;2023-12-20T08:39:27;7.67;;;6.87;;
7683;SDS011;3884;48.616;12.872;2023-12-20T08:41:56;8.03;;;7.23;;
7683;SDS011;3884;48.616;12.872;2023-12-20T08:44:23;6.70;;;5.73;;
7683;SDS011;3884;48.616;12.872;2023-12-20T08:46:50;6.27;;;5.67;;
7683;SDS011;3884;48.616;12.872;2023-12-20T08:49:17;5.97;;;5.37;;
7683;SDS011;3884;48.616;12.872;2023-12-20T08:51:43;5.47;;;4.97;;
7683;SDS011;3884;48.616;12.872;2023-12-20T08:54:10;5.30;;;4.80;;
7683;SDS011;3884;48.616;12.872;2023-12-20T08:56:38;5.37;;;4.00;;
7683;SDS011;3884;48.616;12.872;2023-12-20T08:59:06;5.93;;;5.33;;
7683;SDS011;3884;48.616;12.872;2023-12-20T09:01:33;4.57;;;4.03;;
7683;SDS011;3884;48.616;12.872;2023-12-20T09:04:00;4.47;;;3.90;;
7683;SDS011;3884;48.616;12.872;2023-12-20T09:06:27;6.20;;;5.07;;
7683;SDS011;3884;48.616;12.872;2023-12-20T09:08:53;51.17;;;32.10;;
7683;SDS011;3884;48.616;12.872;2023-12-20T09:11:20;116.40;;;61.33;;
7683;SDS011;3884;48.616;12.872;2023-12-20T09:13:47;24.33;;;13.50;;
7683;SDS011;3884;48.616;12.872;2023-12-20T09:16:15;213.10;;;83.77;;
7683;SDS011;3884;48.616;12.872;2023-12-20T09:18:42;126.13;;;49.20;;
7683;SDS011;3884;48.616;12.872;2023-12-20T09:21:09;303.03;;;128.93;;
7683;SDS011;3884;48.616;12.872;2023-12-20T09:23:37;194.10;;;82.07;;
7683;SDS011;3884;48.616;12.872;2023-12-20T09:26:05;257.30;;;108.67;;
7683;SDS011;3884;48.616;12.872;2023-12-20T09:28:31;27.37;;;14.93;;
7683;SDS011;3884;48.616;12.872;2023-12-20T09:31:02;52.70;;;23.57;;
7683;SDS011;3884;48.616;12.872;2023-12-20T09:33:31;52.90;;;27.27;;
7683;SDS011;3884;48.616;12.872;2023-12-20T09:35:59;7.80;;;4.93;;
7683;SDS011;3884;48.616;12.872;2023-12-20T09:38:26;6.90;;;5.43;;
7683;SDS011;3884;48.616;12.872;2023-12-20T09:40:53;16.80;;;9.97;;
7683;SDS011;3884;48.616;12.872;2023-12-20T09:43:21;18.50;;;10.60;;
7683;SDS011;3884;48.616;12.872;2023-12-20T09:45:51;44.83;;;26.67;;
7683;SDS011;3884;48.616;12.872;2023-12-20T09:48:19;20.93;;;13.30;;
7683;SDS011;3884;48.616;12.872;2023-12-20T09:50:48;18.93;;;12.40;;
7683;SDS011;3884;48.616;12.872;2023-12-20T09:53:15;17.30;;;10.83;;
7683;SDS011;3884;48.616;12.872;2023-12-20T09:55:44;9.17;;;6.13;;
7683;SDS011;3884;48.616;12.872;2023-12-20T09:58:11;119.30;;;56.50;;
7683;SDS011;3884;48.616;12.872;2023-12-20T10:00:38;10.03;;;6.27;;
7683;SDS011;3884;48.616;12.872;2023-12-20T10:03:05;11.53;;;6.47;;
7683;SDS011;3884;48.616;12.872;2023-12-20T10:05:33;20.13;;;12.20;;
7683;SDS011;3884;48.616;12.872;2023-12-20T10:08:03;49.50;;;26.93;;
7683;SDS011;3884;48.616;12.872;2023-12-20T10:10:30;17.07;;;9.97;;
7683;SDS011;3884;48.616;12.872;2023-12-20T10:13:01;35.13;;;20.93;;
7683;SDS011;3884;48.616;12.872;2023-12-20T10:15:29;8.53;;;5.23;;
7683;SDS011;3884;48.616;12.872;2023-12-20T10:17:56;18.40;;;11.67;;
7683;SDS011;3884;48.616;12.872;2023-12-20T10:20:23;27.23;;;20.40;;
7683;SDS011;3884;48.616;12.872;2023-12-20T10:22:50;49.30;;;44.23;;
7683;SDS011;3884;48.616;12.872;2023-12-20T10:25:20;80.40;;;66.23;;
7683;SDS011;3884;48.616;12.872;2023-12-20T10:27:47;71.83;;;40.27;;
7683;SDS011;3884;48.616;12.872;2023-12-20T10:30:15;32.30;;;29.33;;
7683;SDS011;3884;48.616;12.872;2023-12-20T10:32:42;7.37;;;6.60;;
7683;SDS011;3884;48.616;12.872;2023-12-20T10:35:09;49.70;;;29.10;;
7683;SDS011;3884;48.616;12.872;2023-12-20T10:37:36;28.63;;;17.33;;
7683;SDS011;3884;48.616;12.872;2023-12-20T10:40:04;19.60;;;13.13;;
7683;SDS011;3884;48.616;12.872;2023-12-20T10:42:33;8.47;;;5.73;;
7683;SDS011;3884;48.616;12.872;2023-12-20T10:45:02;44.70;;;22.87;;
7683;SDS011;3884;48.616;12.872;2023-12-20T10:47:30;13.50;;;8.90;;
7683;SDS011;3884;48.616;12.872;2023-12-20T10:49:59;58.10;;;31.90;;
7683;SDS011;3884;48.616;12.872;2023-12-20T10:52:26;35.87;;;20.30;;
7683;SDS011;3884;48.616;12.872;2023-12-20T10:54:55;12.03;;;7.90;;
7683;SDS011;3884;48.616;12.872;2023-12-20T10:57:22;21.50;;;13.73;;
7683;SDS011;3884;48.616;12.872;2023-12-20T10:59:54;9.47;;;7.13;;
7683;SDS011;3884;48.616;12.872;2023-12-20T11:02:26;9.67;;;6.93;;
7683;SDS011;3884;48.616;12.872;2023-12-20T11:04:57;43.63;;;28.53;;
7683;SDS011;3884;48.616;12.872;2023-12-20T11:07:35;32.03;;;23.83;;
7683;SDS011;3884;48.616;12.872;2023-12-20T11:10:10;17.30;;;14.07;;
7683;SDS011;3884;48.616;12.872;2023-12-20T11:12:43;4.47;;;4.00;;
7683;SDS011;3884;48.616;12.872;2023-12-20T11:15:16;5.60;;;5.10;;
7683;SDS011;3884;48.616;12.872;2023-12-20T11:17:44;4.50;;;4.10;;
7683;SDS011;3884;48.616;12.872;2023-12-20T11:20:12;4.30;;;3.90;;
7683;SDS011;3884;48.616;12.872;2023-12-20T11:22:39;4.43;;;4.03;;
7683;SDS011;3884;48.616;12.872;2023-12-20T11:25:18;5.67;;;3.90;;
7683;SDS011;3884;48.616;12.872;2023-12-20T11:27:46;4.77;;;4.37;;
7683;SDS011;3884;48.616;12.872;2023-12-20T11:30:40;3.87;;;3.57;;
7683;SDS011;3884;48.616;12.872;2023-12-20T11:33:08;3.70;;;3.40;;
7683;SDS011;3884;48.616;12.872;2023-12-20T11:35:34;4.80;;;4.00;;
7683;SDS011;3884;48.616;12.872;2023-12-20T11:38:02;4.63;;;3.90;;
7683;SDS011;3884;48.616;12.872;2023-12-20T11:40:29;3.77;;;3.47;;
7683;SDS011;3884;48.616;12.872;2023-12-20T11:43:01;3.90;;;3.37;;
7683;SDS011;3884;48.616;12.872;2023-12-20T11:45:30;3.40;;;3.00;;
7683;SDS011;3884;48.616;12.872;2023-12-20T11:47:57;4.00;;;3.50;;
7683;SDS011;3884;48.616;12.872;2023-12-20T11:50:24;2.97;;;2.73;;
7683;SDS011;3884;48.616;12.872;2023-12-20T11:52:52;3.20;;;2.90;;
7683;SDS011;3884;48.616;12.872;2023-12-20T11:55:20;3.63;;;3.33;;
7683;SDS011;3884;48.616;12.872;2023-12-20T11:57:49;4.07;;;3.50;;
7683;SDS011;3884;48.616;12.872;2023-12-20T12:00:16;3.90;;;3.50;;
7683;SDS011;3884;48.616;12.872;2023-12-20T12:02:56;4.87;;;4.37;;
7683;SDS011;3884;48.616;12.872;2023-12-20T12:05:24;4.60;;;4.20;;
7683;SDS011;3884;48.616;12.872;2023-12-20T12:07:51;4.33;;;3.97;;
7683;SDS011;3884;48.616;12.872;2023-12-20T12:10:18;3.87;;;3.57;;
7683;SDS011;3884;48.616;12.872;2023-12-20T12:12:45;4.53;;;4.13;;
7683;SDS011;3884;48.616;12.872;2023-12-20T12:15:13;4.77;;;4.37;;
7683;SDS011;3884;48.616;12.872;2023-12-20T12:17:40;5.17;;;4.70;;
7683;SDS011;3884;48.616;12.872;2023-12-20T12:20:09;5.50;;;4.40;;
7683;SDS011;3884;48.616;12.872;2023-12-20T12:22:36;3.33;;;3.03;;
7683;SDS011;3884;48.616;12.872;2023-12-20T12:25:10;2.33;;;2.13;;
7683;SDS011;3884;48.616;12.872;2023-12-20T12:27:39;3.50;;;2.60;;
7683;SDS011;3884;48.616;12.872;2023-12-20T12:30:09;3.20;;;2.93;;
7683;SDS011;3884;48.616;12.872;2023-12-20T12:32:38;3.07;;;2.60;;
7683;SDS011;3884;48.616;12.872;2023-12-20T12:35:05;3.10;;;2.80;;
7683;SDS011;3884;48.616;12.872;2023-12-20T12:37:36;3.27;;;2.70;;
7683;SDS011;3884;48.616;12.872;2023-12-20T12:40:05;3.00;;;2.80;;
7683;SDS011;3884;48.616;12.872;2023-12-20T12:42:32;3.20;;;2.90;;
7683;SDS011;3884;48.616;12.872;2023-12-20T12:44:59;3.20;;;2.90;;
7683;SDS011;3884;48.616;12.872;2023-12-20T12:47:26;3.87;;;2.67;;
7683;SDS011;3884;48.616;12.872;2023-12-20T12:49:53;3.97;;;3.10;;
7683;SDS011;3884;48.616;12.872;2023-12-20T12:52:20;4.90;;;3.90;;
7683;SDS011;3884;48.616;12.872;2023-12-20T12:54:48;2.70;;;2.50;;
7683;SDS011;3884;48.616;12.872;2023-12-20T12:57:15;3.40;;;2.70;;
7683;SDS011;3884;48.616;12.872;2023-12-20T12:59:42;2.90;;;2.60;;
7683;SDS011;3884;48.616;12.872;2023-12-20T13:02:11;4.37;;;4.07;;
7683;SDS011;3884;48.616;12.872;2023-12-20T13:04:38;4.27;;;3.03;;
7683;SDS011;3884;48.616;12.872;2023-12-20T13:07:05;5.00;;;3.13;;
7683;SDS011;3884;48.616;12.872;2023-12-20T13:09:32;6.57;;;4.50;;
7683;SDS011;3884;48.616;12.872;2023-12-20T13:12:01;8.53;;;3.67;;
7683;SDS011;3884;48.616;12.872;2023-12-20T13:14:29;4.13;;;3.43;;
7683;SDS011;3884;48.616;12.872;2023-12-20T13:16:58;3.20;;;2.90;;
7683;SDS011;3884;48.616;12.872;2023-12-20T13:19:25;4.80;;;4.00;;
7683;SDS011;3884;48.616;12.872;2023-12-20T13:21:51;5.07;;;4.00;;
7683;SDS011;3884;48.616;12.872;2023-12-20T13:24:19;4.27;;;3.87;;
7683;SDS011;3884;48.616;12.872;2023-12-20T13:26:46;4.53;;;3.57;;
7683;SDS011;3884;48.616;12.872;2023-12-20T13:29:14;4.33;;;3.57;;
7683;SDS011;3884;48.616;12.872;2023-12-20T13:31:41;3.17;;;2.47;;
7683;SDS011;3884;48.616;12.872;2023-12-20T13:34:08;3.30;;;2.70;;
7683;SDS011;3884;48.616;12.872;2023-12-20T13:36:35;3.23;;;2.43;;
7683;SDS011;3884;48.616;12.872;2023-12-20T13:39:03;3.00;;;2.60;;
7683;SDS011;3884;48.616;12.872;2023-12-20T13:41:30;3.57;;;2.80;;
7683;SDS011;3884;48.616;12.872;2023-12-20T13:43:57;4.03;;;2.70;;
7683;SDS011;3884;48.616;12.872;2023-12-20T13:46:25;3.40;;;2.80;;
7683;SDS011;3884;48.616;12.872;2023-12-20T13:48:52;3.97;;;3.17;;
7683;SDS011;3884;48.616;12.872;2023-12-20T13:51:19;2.53;;;2.23;;
7683;SDS011;3884;48.616;12.872;2023-12-20T13:53:47;4.00;;;2.60;;
7683;SDS011;3884;48.616;12.872;2023-12-20T13:56:15;3.10;;;2.30;;
7683;SDS011;3884;48.616;12.872;2023-12-20T13:58:41;3.47;;;2.57;;
7683;SDS011;3884;48.616;12.872;2023-12-20T14:01:09;3.70;;;2.60;;
7683;SDS011;3884;48.616;12.872;2023-12-20T14:03:38;2.57;;;2.37;;
7683;SDS011;3884;48.616;12.872;2023-12-20T14:06:06;2.40;;;2.20;;
7683;SDS011;3884;48.616;12.872;2023-12-20T14:08:33;2.57;;;2.30;;
7683;SDS011;3884;48.616;12.872;2023-12-20T14:11:01;4.47;;;3.33;;
7683;SDS011;3884;48.616;12.872;2023-12-20T14:13:27;3.33;;;2.53;;
7683;SDS011;3884;48.616;12.872;2023-12-20T14:15:54;5.50;;;2.80;;
7683;SDS011;3884;48.616;12.872;2023-12-20T14:18:21;2.67;;;2.33;;
7683;SDS011;3884;48.616;12.872;2023-12-20T14:20:50;4.10;;;2.63;;
7683;SDS011;3884;48.616;12.872;2023-12-20T14:23:17;4.67;;;2.73;;
7683;SDS011;3884;48.616;12.872;2023-12-20T14:25:44;5.30;;;3.10;;
7683;SDS011;3884;48.616;12.872;2023-12-20T14:28:11;2.70;;;2.23;;
7683;SDS011;3884;48.616;12.872;2023-12-20T14:30:39;3.23;;;2.40;;
7683;SDS011;3884;48.616;12.872;2023-12-20T14:33:06;4.27;;;3.20;;
7683;SDS011;3884;48.616;12.872;2023-12-20T14:35:33;4.87;;;3.57;;
7683;SDS011;3884;48.616;12.872;2023-12-20T14:38:02;6.00;;;3.30;;
7683;SDS011;3884;48.616;12.872;2023-12-20T14:40:30;4.87;;;3.67;;
7683;SDS011;3884;48.616;12.872;2023-12-20T14:42:56;3.57;;;2.60;;
7683;SDS011;3884;48.616;12.872;2023-12-20T14:45:24;3.70;;;2.83;;
7683;SDS011;3884;48.616;12.872;2023-12-20T14:47:52;3.27;;;2.83;;